Time;durP1;ratioP1;P1;durP2;ratioP2;P2;SDS_P1;SDS_P2;PMS_P1;PMS_P2;Temp;Humidity;BMP_temperature;BMP_pressure;BME280_temperature;BME280_humidity;BME280_pressure;Samples;Min_cycle;Max_cycle;Signal;HPM_P1;HPM_P2
2023/12/10 00:01:14;;;;;;;24.13;5.60;;;11.00;99.90;;;;;;5093029;28;20267;-71
2023/12/10 00:03:40;;;;;;;26.47;5.37;;;11.00;99.90;;;;;;5092715;28;20172;-72
2023/12/10 00:06:06;;;;;;;22.63;5.20;;;11.00;99.90;;;;;;5093035;28;20203;-71
2023/12/10 00:08:31;;;;;;;25.47;5.87;;;11.00;99.90;;;;;;5093102;28;20184;-71
2023/12/10 00:10:57;;;;;;;25.33;5.10;;;11.00;99.90;;;;;;5093046;28;20263;-73
2023/12/10 00:13:22;;;;;;;23.17;5.57;;;11.00;99.90;;;;;;5093175;28;20163;-71
2023/12/10 00:15:48;;;;;;;25.10;5.03;;;11.00;99.90;;;;;;5093008;28;20748;-70
2023/12/10 00:18:14;;;;;;;23.13;5.90;;;11.00;99.90;;;;;;5092792;28;20168;-71
2023/12/10 00:20:39;;;;;;;24.07;5.40;;;10.90;99.90;;;;;;5093708;28;20251;-72
2023/12/10 00:23:07;;;;;;;21.00;5.03;;;10.90;99.90;;;;;;5096771;28;20532;-72
2023/12/10 00:25:33;;;;;;;26.50;5.00;;;10.90;99.90;;;;;;5096927;28;20160;-72
2023/12/10 00:27:58;;;;;;;23.50;4.57;;;10.90;99.90;;;;;;5095477;28;20234;-72
2023/12/10 00:30:25;;;;;;;23.57;4.97;;;10.90;99.90;;;;;;5097142;28;20168;-72
2023/12/10 00:32:51;;;;;;;16.27;3.67;;;10.90;99.90;;;;;;5095284;28;20172;-72
2023/12/10 00:35:17;;;;;;;22.90;4.87;;;10.90;99.90;;;;;;5096715;28;20559;-72
2023/12/10 00:37:42;;;;;;;20.67;5.33;;;10.90;99.90;;;;;;5096576;28;20537;-72
2023/12/10 00:40:09;;;;;;;17.90;4.23;;;10.90;99.90;;;;;;5096688;28;20229;-72
2023/12/10 00:42:34;;;;;;;20.07;4.73;;;10.80;99.90;;;;;;5096754;28;20168;-72
2023/12/10 00:45:00;;;;;;;17.77;4.30;;;10.80;99.90;;;;;;5096751;28;20682;-72
2023/12/10 00:47:26;;;;;;;29.40;5.57;;;10.80;99.90;;;;;;5096192;28;20222;-72
2023/12/10 00:49:51;;;;;;;21.23;3.83;;;10.80;99.90;;;;;;5096591;28;20229;-72
2023/12/10 00:52:17;;;;;;;17.13;4.37;;;10.80;99.90;;;;;;5096565;28;20180;-72
2023/12/10 00:54:42;;;;;;;13.57;4.23;;;10.80;99.90;;;;;;5095099;28;20197;-72
2023/12/10 00:57:08;;;;;;;24.43;4.80;;;10.80;99.90;;;;;;5096591;28;20218;-72
2023/12/10 00:59:34;;;;;;;21.17;4.70;;;10.70;99.90;;;;;;5096460;28;20180;-72
2023/12/10 01:01:59;;;;;;;17.50;4.43;;;10.70;99.90;;;;;;5096176;28;20222;-72
2023/12/10 01:04:27;;;;;;;16.03;4.33;;;10.70;99.90;;;;;;5095003;28;20251;-72
2023/12/10 01:06:52;;;;;;;27.17;4.90;;;10.60;99.90;;;;;;5096117;28;20290;-72
2023/12/10 01:09:18;;;;;;;19.43;3.67;;;10.60;99.90;;;;;;5096075;28;20210;-72
2023/12/10 01:11:43;;;;;;;21.83;4.30;;;10.60;99.90;;;;;;5096111;28;20588;-71
2023/12/10 01:14:09;;;;;;;19.00;3.60;;;10.60;99.90;;;;;;5096118;28;20176;-72
2023/12/10 01:16:35;;;;;;;18.03;4.97;;;10.60;99.90;;;;;;5095765;28;20622;-72
2023/12/10 01:19:00;;;;;;;22.43;4.40;;;10.60;99.90;;;;;;5095904;28;20624;-72
2023/12/10 01:21:26;;;;;;;20.30;4.43;;;10.70;99.90;;;;;;5095950;28;20176;-71
2023/12/10 01:23:54;;;;;;;23.00;4.43;;;10.70;99.90;;;;;;5095762;28;20242;-72
2023/12/10 01:26:21;;;;;;;25.37;4.70;;;10.70;99.90;;;;;;5095703;28;20674;-72
2023/12/10 01:28:46;;;;;;;20.83;4.40;;;10.60;99.90;;;;;;5095609;28;20273;-72
2023/12/10 01:31:12;;;;;;;20.07;4.93;;;10.70;99.90;;;;;;5094656;28;20180;-72
2023/12/10 01:33:38;;;;;;;17.97;4.10;;;10.60;99.90;;;;;;5095331;28;20183;-72
2023/12/10 01:36:03;;;;;;;22.80;4.27;;;10.60;99.90;;;;;;5095765;28;20271;-72
2023/12/10 01:38:29;;;;;;;17.80;3.90;;;10.70;99.90;;;;;;5095492;28;20683;-71
2023/12/10 01:40:55;;;;;;;26.20;5.87;;;10.70;99.90;;;;;;5095480;28;20176;-71
2023/12/10 01:43:20;;;;;;;22.47;4.07;;;10.70;99.90;;;;;;5095430;28;20168;-71
2023/12/10 01:45:54;;;;;;;25.73;4.50;;;10.60;99.90;;;;;;5093845;28;20210;-72
2023/12/10 01:48:21;;;;;;;19.10;4.20;;;10.60;99.90;;;;;;5095327;28;20277;-71
2023/12/10 01:50:47;;;;;;;22.67;4.33;;;10.60;99.90;;;;;;5095535;28;20172;-71
2023/12/10 01:53:14;;;;;;;24.57;5.30;;;10.60;99.90;;;;;;5095272;28;20254;-71
2023/12/10 01:55:41;;;;;;;22.57;4.63;;;10.60;99.90;;;;;;5095236;28;20194;-71
2023/12/10 01:58:07;;;;;;;23.57;4.80;;;10.60;99.90;;;;;;5095181;28;20160;-71
2023/12/10 02:00:33;;;;;;;20.33;4.80;;;10.60;99.90;;;;;;5094709;28;20677;-72
2023/12/10 02:03:02;;;;;;;25.13;4.77;;;10.60;99.90;;;;;;5093871;28;20254;-71
2023/12/10 02:05:28;;;;;;;27.30;5.90;;;10.60;99.90;;;;;;5095048;28;20176;-71
2023/12/10 02:07:54;;;;;;;26.33;5.37;;;10.60;99.90;;;;;;5094838;28;20249;-71
2023/12/10 02:10:19;;;;;;;19.00;4.40;;;10.60;99.90;;;;;;5094944;28;20171;-72
2023/12/10 02:12:46;;;;;;;15.20;4.60;;;10.50;99.90;;;;;;5094870;28;20176;-72
2023/12/10 02:15:16;;;;;;;20.27;5.33;;;10.50;99.90;;;;;;5094690;28;20217;-71
2023/12/10 02:17:42;;;;;;;22.23;5.10;;;10.60;99.90;;;;;;5094766;28;20180;-72
2023/12/10 02:20:17;;;;;;;23.20;4.87;;;10.60;99.90;;;;;;5094822;28;20266;-71
2023/12/10 02:22:47;;;;;;;21.27;4.30;;;10.60;99.90;;;;;;5094675;28;20202;-71
2023/12/10 02:25:14;;;;;;;19.60;4.47;;;10.70;99.90;;;;;;5094725;28;20217;-71
2023/12/10 02:27:41;;;;;;;23.03;4.87;;;10.60;99.90;;;;;;5094058;28;20731;-72
2023/12/10 02:30:07;;;;;;;25.30;4.67;;;10.60;99.90;;;;;;5094249;28;20164;-71
2023/12/10 02:32:32;;;;;;;22.63;4.67;;;10.70;99.90;;;;;;5094633;28;20172;-72
2023/12/10 02:34:58;;;;;;;23.93;4.77;;;10.70;99.90;;;;;;5094578;28;20183;-72
2023/12/10 02:37:24;;;;;;;23.40;4.63;;;10.70;99.90;;;;;;5094419;28;20538;-71
2023/12/10 02:39:49;;;;;;;21.93;4.90;;;10.70;99.90;;;;;;5094399;28;20167;-71
2023/12/10 02:42:16;;;;;;;19.43;4.63;;;10.70;99.90;;;;;;5094166;28;20182;-70
2023/12/10 02:44:41;;;;;;;25.10;4.80;;;10.70;99.90;;;;;;5093923;28;20179;-71
2023/12/10 02:47:07;;;;;;;18.27;5.07;;;10.80;99.90;;;;;;5094019;28;20215;-72
2023/12/10 02:49:32;;;;;;;24.87;5.63;;;10.70;99.90;;;;;;5094239;28;20160;-72
2023/12/10 02:51:58;;;;;;;29.20;5.80;;;10.70;99.90;;;;;;5094261;28;20175;-72
2023/12/10 02:54:23;;;;;;;22.83;5.43;;;10.70;99.90;;;;;;5094086;28;20263;-72
2023/12/10 02:56:49;;;;;;;24.20;4.77;;;10.80;99.90;;;;;;5093853;28;20312;-72
2023/12/10 02:59:15;;;;;;;22.97;4.70;;;10.80;99.90;;;;;;5093943;28;20615;-72
2023/12/10 03:01:40;;;;;;;25.83;5.30;;;10.80;99.90;;;;;;5094100;28;20271;-72
2023/12/10 03:04:06;;;;;;;20.63;4.97;;;10.80;99.90;;;;;;5093966;28;20250;-72
2023/12/10 03:06:31;;;;;;;25.87;5.30;;;10.80;99.90;;;;;;5093726;28;20555;-72
2023/12/10 03:08:57;;;;;;;23.40;4.90;;;10.70;99.90;;;;;;5093925;28;20172;-72
2023/12/10 03:11:23;;;;;;;22.60;5.10;;;10.70;99.90;;;;;;5092433;28;20204;-72
2023/12/10 03:13:48;;;;;;;28.90;5.70;;;10.70;99.90;;;;;;5093386;28;20172;-71
2023/12/10 03:16:14;;;;;;;24.33;4.90;;;10.70;99.90;;;;;;5093788;28;20172;-71
2023/12/10 03:18:40;;;;;;;19.20;4.60;;;10.70;99.90;;;;;;5093806;28;20167;-72
2023/12/10 03:21:05;;;;;;;21.63;4.80;;;10.70;99.90;;;;;;5093811;28;20175;-72
2023/12/10 03:23:31;;;;;;;25.43;5.30;;;10.70;99.90;;;;;;5093397;28;20241;-72
2023/12/10 03:25:57;;;;;;;21.70;4.70;;;10.60;99.90;;;;;;5093473;28;20192;-72
2023/12/10 03:28:22;;;;;;;22.70;4.90;;;10.60;99.90;;;;;;5092980;28;20572;-72
2023/12/10 03:30:48;;;;;;;17.30;4.03;;;10.50;99.90;;;;;;5093588;28;20167;-72
2023/12/10 03:33:13;;;;;;;22.60;5.20;;;10.50;99.90;;;;;;5093651;28;20213;-72
2023/12/10 03:35:39;;;;;;;25.10;5.70;;;10.50;99.90;;;;;;5093420;28;20623;-72
2023/12/10 03:38:05;;;;;;;19.23;4.77;;;10.50;99.90;;;;;;5093439;28;20171;-72
2023/12/10 03:40:30;;;;;;;23.10;4.97;;;10.50;99.90;;;;;;5093408;28;20221;-72
2023/12/10 03:42:57;;;;;;;21.30;4.23;;;10.50;99.90;;;;;;5093120;28;20225;-72
2023/12/10 03:45:23;;;;;;;27.00;4.57;;;10.40;99.90;;;;;;5093473;28;20164;-72
2023/12/10 03:47:49;;;;;;;18.13;4.10;;;10.40;99.90;;;;;;5093166;28;20686;-72
2023/12/10 03:50:16;;;;;;;27.83;4.80;;;10.40;99.90;;;;;;5093477;28;20195;-72
2023/12/10 03:52:42;;;;;;;27.23;5.00;;;10.30;99.90;;;;;;5093445;28;20189;-72
2023/12/10 03:55:08;;;;;;;21.23;4.70;;;10.20;99.90;;;;;;5095985;28;20176;-71
2023/12/10 03:57:34;;;;;;;21.00;4.77;;;10.30;99.90;;;;;;5099615;28;20168;-72
2023/12/10 04:00:02;;;;;;;23.03;4.47;;;10.30;99.90;;;;;;5098472;28;20176;-72
2023/12/10 04:02:28;;;;;;;18.63;4.13;;;10.30;99.90;;;;;;5100038;28;20217;-72
2023/12/10 04:04:53;;;;;;;16.17;4.00;;;10.20;99.90;;;;;;5099783;28;20584;-71
2023/12/10 04:07:20;;;;;;;20.47;4.47;;;10.20;99.90;;;;;;5099875;28;20203;-72
2023/12/10 04:09:45;;;;;;;22.47;4.97;;;10.30;99.90;;;;;;5099734;28;20178;-72
2023/12/10 04:12:11;;;;;;;22.50;5.00;;;10.30;99.90;;;;;;5099570;28;20605;-71
2023/12/10 04:14:37;;;;;;;19.93;4.53;;;10.20;99.90;;;;;;5099491;28;20182;-71
2023/12/10 04:17:03;;;;;;;20.90;4.87;;;10.20;99.90;;;;;;5099559;28;20179;-71
2023/12/10 04:19:29;;;;;;;27.07;4.43;;;10.20;99.90;;;;;;5099719;28;20254;-72
2023/12/10 04:21:55;;;;;;;24.03;4.40;;;10.20;99.90;;;;;;5099487;28;20670;-72
2023/12/10 04:24:20;;;;;;;20.33;4.27;;;10.30;99.90;;;;;;5099099;28;20275;-72
2023/12/10 04:26:46;;;;;;;28.07;5.03;;;10.40;99.90;;;;;;5099047;28;20203;-72
2023/12/10 04:29:12;;;;;;;25.77;4.87;;;10.40;99.90;;;;;;5099517;28;20179;-72
2023/12/10 04:31:37;;;;;;;23.43;4.93;;;10.50;99.90;;;;;;5099465;28;20172;-72
2023/12/10 04:34:03;;;;;;;20.53;4.67;;;10.50;99.90;;;;;;5099200;28;20691;-72
2023/12/10 04:36:29;;;;;;;29.60;5.03;;;10.50;99.90;;;;;;5099463;28;20178;-72
2023/12/10 04:38:55;;;;;;;23.17;5.13;;;10.50;99.90;;;;;;5099310;28;20160;-72
2023/12/10 04:41:21;;;;;;;22.27;5.10;;;10.60;99.90;;;;;;5097795;28;20654;-72
2023/12/10 04:43:48;;;;;;;26.93;6.07;;;10.50;99.90;;;;;;5099417;28;20168;-72
2023/12/10 04:46:13;;;;;;;22.17;5.03;;;10.50;99.90;;;;;;5099087;28;20179;-72
2023/12/10 04:48:39;;;;;;;25.97;5.20;;;10.50;99.90;;;;;;5099510;28;20282;-72
2023/12/10 04:51:05;;;;;;;26.30;5.33;;;10.40;99.90;;;;;;5099486;28;20193;-72
2023/12/10 04:53:31;;;;;;;28.83;4.97;;;10.40;99.90;;;;;;5099268;28;20241;-72
2023/12/10 04:55:58;;;;;;;20.97;5.43;;;10.30;99.90;;;;;;5099260;28;20167;-72
2023/12/10 04:58:23;;;;;;;26.40;5.17;;;10.30;99.90;;;;;;5099136;28;20298;-72
2023/12/10 05:00:49;;;;;;;22.77;4.90;;;10.20;99.90;;;;;;5097986;28;20539;-72
2023/12/10 05:03:15;;;;;;;23.20;5.00;;;10.20;99.90;;;;;;5099137;28;20529;-72
2023/12/10 05:05:40;;;;;;;21.27;4.43;;;10.20;99.90;;;;;;5098647;28;20171;-71
2023/12/10 05:08:06;;;;;;;27.07;5.03;;;10.10;99.90;;;;;;5095390;28;20203;-71
2023/12/10 05:10:31;;;;;;;26.83;5.33;;;10.20;99.90;;;;;;5095964;28;20625;-71
2023/12/10 05:12:57;;;;;;;23.27;4.93;;;10.10;99.90;;;;;;5095920;28;20534;-71
2023/12/10 05:15:23;;;;;;;26.07;5.47;;;10.00;99.90;;;;;;5094607;28;20203;-72
2023/12/10 05:17:48;;;;;;;22.43;5.17;;;10.00;99.90;;;;;;5095556;28;20195;-72
2023/12/10 05:20:14;;;;;;;22.17;5.10;;;9.90;99.90;;;;;;5095817;28;20168;-72
2023/12/10 05:22:39;;;;;;;23.77;4.90;;;9.90;99.90;;;;;;5095163;28;20272;-72
2023/12/10 05:25:07;;;;;;;23.10;4.47;;;10.00;99.90;;;;;;5095887;28;20687;-71
2023/12/10 05:27:32;;;;;;;22.53;4.73;;;10.00;99.90;;;;;;5095062;28;20223;-72
2023/12/10 05:29:59;;;;;;;23.53;5.23;;;9.90;99.90;;;;;;5095822;28;20156;-72
2023/12/10 05:32:25;;;;;;;25.07;5.17;;;9.90;99.90;;;;;;5094475;28;20179;-72
2023/12/10 05:34:51;;;;;;;23.67;5.53;;;10.00;99.90;;;;;;5095848;28;20180;-72
2023/12/10 05:37:17;;;;;;;25.20;5.10;;;9.90;99.90;;;;;;5095095;28;20189;-72
2023/12/10 05:39:42;;;;;;;26.07;5.40;;;9.90;99.90;;;;;;5095443;28;20179;-72
2023/12/10 05:42:08;;;;;;;24.87;5.43;;;9.90;99.90;;;;;;5095198;28;20247;-71
2023/12/10 05:44:34;;;;;;;32.97;5.37;;;9.90;99.90;;;;;;5095121;28;20214;-72
2023/12/10 05:46:59;;;;;;;25.33;5.00;;;10.00;99.90;;;;;;5095116;28;20243;-72
2023/12/10 05:49:25;;;;;;;22.77;5.33;;;9.90;99.90;;;;;;5094844;28;20208;-72
2023/12/10 05:51:50;;;;;;;33.27;5.43;;;9.90;99.90;;;;;;5094577;28;20171;-71
2023/12/10 05:54:16;;;;;;;29.73;4.90;;;9.80;99.90;;;;;;5094944;28;20254;-72
2023/12/10 05:56:43;;;;;;;22.67;5.13;;;9.80;99.90;;;;;;5095184;28;20179;-72
2023/12/10 05:59:08;;;;;;;27.63;5.70;;;9.80;99.90;;;;;;5094737;28;20286;-72
2023/12/10 06:01:34;;;;;;;23.83;4.13;;;9.80;99.90;;;;;;5095068;28;20218;-72
2023/12/10 06:03:59;;;;;;;26.93;5.03;;;9.70;99.90;;;;;;5094804;28;20168;-72
2023/12/10 06:06:25;;;;;;;24.60;4.57;;;9.70;99.90;;;;;;5093838;28;20203;-72
2023/12/10 06:08:51;;;;;;;24.27;5.20;;;9.70;99.90;;;;;;5094684;28;20203;-72
2023/12/10 06:11:17;;;;;;;22.83;5.30;;;9.70;99.90;;;;;;5094899;28;20209;-72
2023/12/10 06:13:42;;;;;;;22.97;4.93;;;9.70;99.90;;;;;;5094563;28;20254;-71
2023/12/10 06:16:08;;;;;;;24.63;4.87;;;9.70;99.90;;;;;;5094422;28;20694;-72
2023/12/10 06:18:34;;;;;;;24.90;4.90;;;9.70;99.90;;;;;;5093967;28;20708;-71
2023/12/10 06:20:59;;;;;;;22.60;5.00;;;9.70;99.90;;;;;;5094126;28;20176;-71
2023/12/10 06:23:25;;;;;;;22.83;5.10;;;9.60;99.90;;;;;;5094742;28;20679;-72
2023/12/10 06:25:51;;;;;;;21.83;4.63;;;9.70;99.90;;;;;;5094410;28;20222;-71
2023/12/10 06:28:16;;;;;;;23.40;4.47;;;9.70;99.90;;;;;;5093787;28;20781;-70
2023/12/10 06:30:42;;;;;;;23.53;5.20;;;9.70;99.90;;;;;;5094837;28;20168;-72
2023/12/10 06:33:08;;;;;;;22.30;5.00;;;9.70;99.90;;;;;;5094497;28;20180;-72
2023/12/10 06:35:33;;;;;;;18.93;4.10;;;9.60;99.90;;;;;;5094219;28;20214;-72
2023/12/10 06:37:59;;;;;;;30.97;4.87;;;9.70;99.90;;;;;;5093921;28;20259;-72
2023/12/10 06:40:24;;;;;;;24.67;4.90;;;9.60;99.90;;;;;;5094282;28;20175;-72
2023/12/10 06:42:50;;;;;;;15.40;4.53;;;9.60;99.90;;;;;;5094038;28;20635;-72
2023/12/10 06:45:16;;;;;;;27.93;5.10;;;9.50;99.90;;;;;;5094333;28;20263;-72
2023/12/10 06:47:42;;;;;;;28.37;5.23;;;9.60;99.90;;;;;;5094113;28;20575;-72
2023/12/10 06:50:08;;;;;;;25.33;4.83;;;9.50;99.90;;;;;;5093333;28;20240;-72
2023/12/10 06:52:34;;;;;;;16.30;4.50;;;9.50;99.90;;;;;;5093761;28;20655;-72
2023/12/10 06:54:59;;;;;;;28.33;4.57;;;9.50;99.90;;;;;;5094365;28;20666;-72
2023/12/10 06:57:25;;;;;;;26.33;4.77;;;9.60;99.90;;;;;;5093615;28;20168;-72
2023/12/10 06:59:50;;;;;;;23.43;5.20;;;9.50;99.90;;;;;;5093471;28;20175;-72
2023/12/10 07:02:16;;;;;;;21.80;4.87;;;9.50;99.90;;;;;;5093741;28;20252;-71
2023/12/10 07:04:42;;;;;;;31.33;5.57;;;9.60;99.90;;;;;;5093235;28;20172;-72
2023/12/10 07:07:07;;;;;;;25.63;5.30;;;9.50;99.90;;;;;;5092358;28;20204;-72
2023/12/10 07:09:33;;;;;;;23.50;4.60;;;9.50;99.90;;;;;;5093628;28;20176;-72
2023/12/10 07:11:58;;;;;;;33.40;5.73;;;9.40;99.90;;;;;;5093431;28;20194;-72
2023/12/10 07:14:24;;;;;;;19.63;4.03;;;9.50;99.90;;;;;;5092481;28;20176;-72
2023/12/10 07:16:49;;;;;;;22.63;5.20;;;9.60;99.90;;;;;;5093332;28;20207;-72
2023/12/10 07:19:15;;;;;;;31.53;5.57;;;9.60;99.90;;;;;;5093000;28;20179;-72
2023/12/10 07:21:41;;;;;;;21.37;5.13;;;9.50;99.90;;;;;;5093419;28;20171;-72
2023/12/10 07:24:07;;;;;;;28.77;5.77;;;9.60;99.90;;;;;;5093123;28;20291;-72
2023/12/10 07:26:33;;;;;;;31.67;6.50;;;9.60;99.90;;;;;;5093190;28;20210;-72
2023/12/10 07:28:58;;;;;;;26.23;5.53;;;9.50;99.90;;;;;;5092882;28;20224;-72
2023/12/10 07:31:24;;;;;;;25.83;5.20;;;9.70;99.90;;;;;;5093021;28;20527;-72
2023/12/10 07:33:50;;;;;;;25.60;4.90;;;9.60;99.90;;;;;;5092411;28;20168;-72
2023/12/10 07:36:15;;;;;;;23.83;4.53;;;9.60;99.90;;;;;;5093010;28;20195;-72
2023/12/10 07:38:41;;;;;;;32.67;5.47;;;9.70;99.90;;;;;;5092968;28;20172;-72
2023/12/10 07:41:07;;;;;;;30.57;5.63;;;9.60;99.90;;;;;;5092850;28;20263;-72
2023/12/10 07:43:32;;;;;;;22.13;4.60;;;9.70;99.90;;;;;;5092669;28;20176;-72
2023/12/10 07:45:58;;;;;;;29.10;5.80;;;9.60;99.90;;;;;;5092982;28;20182;-72
2023/12/10 07:48:24;;;;;;;22.87;4.77;;;9.70;99.90;;;;;;5092750;28;20291;-72
2023/12/10 07:50:49;;;;;;;28.20;5.77;;;9.70;99.90;;;;;;5092728;28;20203;-71
2023/12/10 07:53:17;;;;;;;23.60;5.40;;;9.70;99.90;;;;;;5092722;28;20180;-72
2023/12/10 07:55:44;;;;;;;28.97;5.20;;;9.70;99.90;;;;;;5092788;28;20182;-72
2023/12/10 07:58:09;;;;;;;24.10;5.23;;;9.70;99.90;;;;;;5092683;28;20199;-72
2023/12/10 08:00:35;;;;;;;25.67;5.30;;;9.80;99.90;;;;;;5092966;28;20647;-72
2023/12/10 08:03:00;;;;;;;24.60;5.17;;;9.80;99.90;;;;;;5092448;28;20200;-72
2023/12/10 08:05:26;;;;;;;24.30;5.33;;;9.70;99.90;;;;;;5092461;28;20250;-72
2023/12/10 08:07:52;;;;;;;24.57;5.13;;;9.80;99.90;;;;;;5092526;28;20553;-71
2023/12/10 08:10:18;;;;;;;24.40;5.43;;;9.80;99.90;;;;;;5092778;28;20243;-73
2023/12/10 08:12:44;;;;;;;25.47;5.90;;;9.80;99.90;;;;;;5091850;28;20198;-73
2023/12/10 08:15:10;;;;;;;20.30;4.77;;;9.90;99.90;;;;;;5093172;28;20627;-72
2023/12/10 08:17:36;;;;;;;30.30;5.17;;;10.10;99.90;;;;;;5092119;28;20316;-72
2023/12/10 08:20:03;;;;;;;19.50;5.07;;;10.20;99.90;;;;;;5091450;28;20722;-72
2023/12/10 08:22:28;;;;;;;23.20;4.77;;;10.30;99.90;;;;;;5092598;28;20519;-72
2023/12/10 08:24:54;;;;;;;22.00;5.50;;;10.40;99.90;;;;;;5092885;28;20171;-72
2023/12/10 08:27:20;;;;;;;34.50;5.40;;;10.40;99.90;;;;;;5091986;28;20679;-72
2023/12/10 08:29:45;;;;;;;21.40;5.07;;;10.50;99.90;;;;;;5091399;28;20175;-72
2023/12/10 08:32:11;;;;;;;22.57;4.57;;;10.60;99.90;;;;;;5092369;28;20218;-72
2023/12/10 08:34:37;;;;;;;21.50;4.30;;;10.70;99.90;;;;;;5092449;28;20643;-72
2023/12/10 08:37:03;;;;;;;24.67;5.13;;;10.90;99.90;;;;;;5092186;28;20176;-72
2023/12/10 08:39:29;;;;;;;23.77;5.83;;;11.20;99.90;;;;;;5092823;28;20265;-72
2023/12/10 08:41:55;;;;;;;18.27;5.13;;;11.30;99.90;;;;;;5094562;28;20632;-72
2023/12/10 08:44:20;;;;;;;28.67;4.97;;;11.40;99.90;;;;;;5096444;28;20177;-72
2023/12/10 08:46:46;;;;;;;24.30;5.60;;;11.50;99.90;;;;;;5095585;28;20221;-71
2023/12/10 08:49:12;;;;;;;25.80;5.37;;;11.50;99.90;;;;;;5095644;28;20171;-71
2023/12/10 08:51:37;;;;;;;26.10;6.53;;;12.00;99.90;;;;;;5095080;28;20667;-71
2023/12/10 08:54:03;;;;;;;24.83;5.67;;;12.40;99.90;;;;;;5096020;28;20207;-71
2023/12/10 08:56:29;;;;;;;23.87;5.60;;;12.60;99.90;;;;;;5095293;28;20160;-72
2023/12/10 08:58:54;;;;;;;25.67;5.77;;;12.90;99.90;;;;;;5096014;28;20251;-71
2023/12/10 09:01:20;;;;;;;23.43;5.53;;;12.80;99.90;;;;;;5095611;28;20191;-72
2023/12/10 09:03:46;;;;;;;28.83;6.23;;;13.20;99.90;;;;;;5094506;28;20213;-71
2023/12/10 09:06:12;;;;;;;25.47;6.30;;;13.30;99.90;;;;;;5094448;28;20202;-71
2023/12/10 09:08:39;;;;;;;26.47;6.20;;;13.60;99.90;;;;;;5095351;28;20289;-70
2023/12/10 09:11:05;;;;;;;20.80;5.97;;;13.70;99.90;;;;;;5095527;28;20168;-71
2023/12/10 09:13:35;;;;;;;26.17;6.17;;;13.70;99.90;;;;;;5095234;28;20175;-72
2023/12/10 09:16:01;;;;;;;26.67;6.40;;;13.40;99.90;;;;;;5095208;28;20176;-71
2023/12/10 09:18:27;;;;;;;27.77;6.10;;;13.50;99.90;;;;;;5095532;28;20171;-71
2023/12/10 09:20:54;;;;;;;30.17;6.97;;;13.50;99.90;;;;;;5095329;28;20172;-71
2023/12/10 09:23:23;;;;;;;24.20;6.90;;;13.70;99.90;;;;;;5094943;28;20192;-71
2023/12/10 09:25:49;;;;;;;25.30;6.37;;;14.10;99.90;;;;;;5095450;28;20171;-70
2023/12/10 09:28:14;;;;;;;26.07;6.67;;;14.30;99.90;;;;;;5094961;28;20224;-71
2023/12/10 09:30:40;;;;;;;22.33;6.40;;;14.40;99.90;;;;;;5094618;28;20580;-71
2023/12/10 09:33:06;;;;;;;23.53;6.57;;;14.40;99.90;;;;;;5095619;28;20164;-70
2023/12/10 09:35:31;;;;;;;27.13;6.20;;;14.50;99.90;;;;;;5095447;28;20262;-70
2023/12/10 09:37:57;;;;;;;26.35;6.25;;;14.70;99.90;;;;;;5095282;28;20561;-70
2023/12/10 09:40:23;;;;;;;24.67;6.90;;;14.70;99.90;;;;;;5094913;28;20293;-70
2023/12/10 09:42:49;;;;;;;24.77;6.70;;;14.60;99.90;;;;;;5094890;28;20671;-70
2023/12/10 09:45:14;;;;;;;25.48;7.03;;;14.40;99.90;;;;;;5094575;28;20156;-71
2023/12/10 09:47:43;;;;;;;25.77;7.00;;;14.60;99.90;;;;;;5094447;28;20291;-70
2023/12/10 09:50:09;;;;;;;30.17;6.82;;;14.70;99.90;;;;;;5094361;28;20186;-71
2023/12/10 09:52:35;;;;;;;33.38;6.85;;;14.30;99.90;;;;;;5094170;28;20176;-70
2023/12/10 09:55:00;;;;;;;30.73;6.90;;;14.20;99.90;;;;;;5094563;28;20266;-71
2023/12/10 09:57:28;;;;;;;27.25;6.95;;;14.10;99.90;;;;;;5094259;28;20172;-72
2023/12/10 09:59:53;;;;;;;25.55;6.03;;;14.10;99.90;;;;;;5094181;28;20215;-71
2023/12/10 10:02:19;;;;;;;26.47;6.63;;;14.00;99.90;;;;;;5094842;28;20623;-72
2023/12/10 10:04:45;;;;;;;26.80;5.83;;;13.90;99.90;;;;;;5092681;28;20172;-72
2023/12/10 10:07:12;;;;;;;34.27;7.13;;;13.70;99.90;;;;;;5092974;28;20694;-72
2023/12/10 10:09:38;;;;;;;28.93;7.07;;;13.70;99.90;;;;;;5094108;28;20172;-72
2023/12/10 10:12:05;;;;;;;28.37;7.20;;;13.30;99.90;;;;;;5094520;28;20176;-73
2023/12/10 10:14:30;;;;;;;25.40;6.20;;;12.80;99.90;;;;;;5094200;28;20168;-72
2023/12/10 10:16:56;;;;;;;30.27;7.50;;;12.70;99.90;;;;;;5094517;28;20206;-72
2023/12/10 10:19:22;;;;;;;31.93;6.90;;;12.60;99.90;;;;;;5093923;28;20271;-73
2023/12/10 10:21:47;;;;;;;31.43;6.90;;;12.30;99.90;;;;;;5093012;28;20179;-73
2023/12/10 10:24:13;;;;;;;32.87;7.20;;;12.30;99.90;;;;;;5094221;28;20200;-73
2023/12/10 10:26:39;;;;;;;34.47;8.13;;;12.30;99.90;;;;;;5092085;28;20208;-73
2023/12/10 10:29:07;;;;;;;34.30;6.83;;;12.30;99.90;;;;;;5092987;28;20262;-73
2023/12/10 10:31:33;;;;;;;34.53;7.33;;;12.20;99.90;;;;;;5093269;28;20164;-73
2023/12/10 10:34:04;;;;;;;33.67;6.73;;;12.10;99.90;;;;;;5093808;28;20270;-73
2023/12/10 10:36:31;;;;;;;31.20;7.90;;;12.00;99.90;;;;;;5094250;28;20662;-73
2023/12/10 10:38:57;;;;;;;29.70;6.10;;;11.80;99.90;;;;;;5093735;28;20176;-73
2023/12/10 10:41:23;;;;;;;29.27;6.70;;;11.80;99.90;;;;;;5093578;28;20615;-73
2023/12/10 10:43:49;;;;;;;30.80;6.67;;;11.70;99.90;;;;;;5093702;28;20172;-73
2023/12/10 10:46:19;;;;;;;37.00;7.17;;;11.70;99.90;;;;;;5093857;28;20576;-74
2023/12/10 10:48:51;;;;;;;35.63;6.27;;;11.70;99.90;;;;;;5093361;28;20180;-73
2023/12/10 10:51:27;;;;;;;38.97;6.93;;;11.60;99.90;;;;;;5093372;28;20297;-73
2023/12/10 10:53:56;;;;;;;33.50;6.17;;;11.60;99.90;;;;;;5093304;28;20698;-73
2023/12/10 10:56:23;;;;;;;30.17;7.40;;;11.70;99.90;;;;;;5093325;28;20259;-74
2023/12/10 10:58:48;;;;;;;29.10;6.20;;;11.70;99.90;;;;;;5093071;28;20324;-73
2023/12/10 11:01:37;;;;;;;29.93;7.17;;;11.90;99.90;;;;;;5093500;28;20254;-72
2023/12/10 11:04:03;;;;;;;35.60;7.53;;;11.90;99.90;;;;;;5093056;28;20579;-72
2023/12/10 11:06:29;;;;;;;27.10;5.87;;;12.00;99.90;;;;;;5092748;28;20208;-74
2023/12/10 11:08:58;;;;;;;31.97;6.60;;;12.10;99.90;;;;;;5093182;28;20169;-73
2023/12/10 11:11:25;;;;;;;36.23;7.57;;;12.30;99.90;;;;;;5092872;28;20164;-72
2023/12/10 11:13:53;;;;;;;38.33;6.83;;;12.20;99.90;;;;;;5093182;28;20628;-72
2023/12/10 11:16:19;;;;;;;24.90;6.43;;;12.40;99.90;;;;;;5092775;28;20163;-72
2023/12/10 11:18:58;;;;;;;27.43;6.53;;;12.50;99.90;;;;;;5093564;28;20171;-72
2023/12/10 11:21:24;;;;;;;35.27;6.83;;;12.40;99.90;;;;;;5093300;28;20187;-72
2023/12/10 11:23:50;;;;;;;22.97;6.13;;;12.50;99.90;;;;;;5092516;28;20249;-73
2023/12/10 11:26:15;;;;;;;27.50;6.53;;;12.50;99.90;;;;;;5092887;28;20180;-73
2023/12/10 11:28:41;;;;;;;38.03;6.87;;;12.40;99.90;;;;;;5092745;28;20231;-73
2023/12/10 11:31:07;;;;;;;29.10;6.30;;;12.30;99.90;;;;;;5092024;28;20172;-72
2023/12/10 11:33:38;;;;;;;38.13;6.70;;;12.10;99.90;;;;;;5092893;28;20270;-73
2023/12/10 11:36:04;;;;;;;28.37;7.40;;;12.00;99.90;;;;;;5093055;28;20289;-73
2023/12/10 11:38:30;;;;;;;33.00;7.53;;;12.00;99.90;;;;;;5093168;28;20172;-73
2023/12/10 11:40:56;;;;;;;32.60;6.40;;;12.10;99.90;;;;;;5092415;28;20191;-73
2023/12/10 11:43:21;;;;;;;30.73;6.43;;;12.00;99.90;;;;;;5092804;28;20531;-72
2023/12/10 11:45:47;;;;;;;35.37;7.83;;;11.90;99.90;;;;;;5092656;28;20191;-73
2023/12/10 11:48:13;;;;;;;32.13;6.63;;;12.00;99.90;;;;;;5092632;28;20736;-72
2023/12/10 11:50:38;;;;;;;30.10;7.27;;;12.00;99.90;;;;;;5092887;28;20696;-73
2023/12/10 11:53:06;;;;;;;29.73;7.17;;;12.10;99.90;;;;;;5092647;28;20179;-72
2023/12/10 11:55:32;;;;;;;34.50;6.20;;;12.20;99.90;;;;;;5092294;28;20180;-73
2023/12/10 11:57:58;;;;;;;28.77;6.83;;;12.20;99.90;;;;;;5092655;28;20180;-73
2023/12/10 12:00:24;;;;;;;27.93;6.53;;;12.20;99.90;;;;;;5092612;28;20363;-73
2023/12/10 12:02:55;;;;;;;31.03;7.37;;;12.20;99.90;;;;;;5092329;28;20647;-73
2023/12/10 12:05:21;;;;;;;31.87;6.70;;;12.20;99.90;;;;;;5093083;28;20573;-73
2023/12/10 12:07:50;;;;;;;30.17;6.20;;;12.10;99.90;;;;;;5091119;28;20200;-73
2023/12/10 12:10:17;;;;;;;27.67;5.30;;;12.10;99.90;;;;;;5091853;28;20176;-73
2023/12/10 12:12:47;;;;;;;26.83;6.90;;;12.00;99.90;;;;;;5092360;28;20164;-73
2023/12/10 12:15:14;;;;;;;27.93;7.73;;;11.90;99.90;;;;;;5091881;28;20176;-73
2023/12/10 12:17:44;;;;;;;25.93;5.53;;;12.00;99.90;;;;;;5095676;28;20354;-72
2023/12/10 12:20:25;;;;;;;27.67;6.00;;;11.90;99.90;;;;;;5096591;28;20199;-72
2023/12/10 12:22:52;;;;;;;23.23;5.90;;;12.00;99.90;;;;;;5096274;28;20245;-72
2023/12/10 12:25:18;;;;;;;26.90;6.07;;;11.90;99.90;;;;;;5096925;28;20232;-73
2023/12/10 12:27:44;;;;;;;26.23;5.33;;;11.90;99.90;;;;;;5095853;28;20231;-72
2023/12/10 12:30:10;;;;;;;26.03;5.93;;;11.90;99.90;;;;;;5096503;28;20298;-72
2023/12/10 12:32:36;;;;;;;28.13;6.00;;;11.90;99.90;;;;;;5095990;28;20652;-74